Meteo Giornale » Osservazioni meteo Stati Uniti (USA) » Salt Lake City
ore: 12:54 - Osservazioni Meteo Salt Lake City
Lat. 40° 46' N Lon. 111° 58' W Alt. 1288 metri s.l.m.
26 °C
Molto Nuvoloso
Temp. 24 Ore
16 °C
30 °C
Sud
31.5 Km/h
Dew point 11 °C
Umidità 39 %
Visibilità 10 Km
Il sole sorge alle ore 06:55
Il sole tramonta alle ore 20:00
| Data e Ora | Cielo e Fenomeni | T °C | DP °C | Um. % | Pres. hPa | Vis. km | Vento km/h | |
|---|---|---|---|---|---|---|---|---|
| Oggi h: 12:54 | Molto Nuvoloso | 26 | 11 | 39 | 1017 | 10 | S 31.5 | |
| Oggi h: 11:54 | Nuvoloso | 25 | 11 | 41 | 1017 | 10 | S 37 | |
| Oggi h: 10:54 | Molto Nuvoloso | 24 | 11 | 43 | 1018 | 10 | S/SE 22.2 | |
| Oggi h: 09:54 | Nuvoloso | 21 | 11 | 52 | 1018 | 10 | S/SE 18.5 | |
| Oggi h: 08:54 | Nuvoloso | 19 | 12 | 63 | 1018 | 10 | S/SE 24 | |
| Oggi h: 07:54 | Nuvoloso | 18 | 11 | 63 | 1018 | 10 | S/SE 14.8 | |
| Oggi h: 06:54 | Nuvoloso | 16 | 12 | 77 | 1017 | 10 | S/SE 14.8 | |
| Oggi h: 05:54 | Sereno | 17 | 12 | 72 | 1017 | 10 | SE 14.8 | |
| Oggi h: 04:54 | Poco Nuvoloso | 16 | 11 | 72 | 1017 | 10 | SE 11.1 | |
| Oggi h: 03:54 | Poco Nuvoloso | 17 | 12 | 72 | 1018 | 10 | SE 11.1 | |
| Oggi h: 02:54 | Poco Nuvoloso | 17 | 11 | 67 | 1018 | 10 | S/SE 18.5 | |
| Oggi h: 01:54 | Molto Nuvoloso | 18 | 12 | 67 | 1018 | 10 | SE 14.8 | |
| Oggi h: 00:54 | Molto Nuvoloso | 18 | 12 | 67 | 1018 | 10 | S 14.8 | |
| Ieri h: 23:54 | Molto Nuvoloso | 18 | 12 | 67 | 1018 | 10 | SE 13 | |
| Ieri h: 22:54 | Molto Nuvoloso | 18 | 12 | 67 | 1019 | 10 | S 16.7 | |
| Ieri h: 21:54 | Molto Nuvoloso | 18 | 13 | 72 | 1019 | 10 | S/SE 22.2 | |
| Ieri h: 20:54 | Molto Nuvoloso | 18 | 12 | 67 | 1018 | 10 | SE 16.7 | |
| Ieri h: 19:54 | Molto Nuvoloso | 18 | 12 | 67 | 1019 | 10 | SE 20.3 | |
| Ieri h: 18:54 | Pioggia | 18 | 13 | 72 | 1020 | 10 | S/SE 25.9 | |
| Ieri h: 18:03 | Pioggia | 19 | 14 | 72 | 1019 | 14 | E/SE 13 | |
| Ieri h: 17:54 | Pioggia | 20 | 13 | 64 | 1019 | 10 | E/SE 25.9 | |
| Ieri h: 17:50 | Pioggia | 20 | 13 | 64 | 1019 | 10 | SE 22.2 | |
| Ieri h: 16:54 | Temporale | 26 | 10 | 36 | 1016 | 10 | SO 20.3 | |
| Ieri h: 16:08 | Temporale | 27 | 13 | 42 | 1014 | 10 | O 25.9 | |
| Ieri h: 15:58 | Temporale nelle vicinanze | 28 | 12 | 37 | 1014 | 10 | O 22.2 | |
| Ieri h: 15:54 | Molto Nuvoloso | 29 | 10 | 30 | 1014 | 10 | O 18.5 | |
| Ieri h: 14:54 | Molto Nuvoloso | 30 | 8 | 25 | 1015 | 10 | S 16.7 | |
| Ieri h: 13:54 | Molto Nuvoloso | 28 | 11 | 34 | 1016 | 10 | S/SO 7.4 | |



